Tiempo atmosférico en la estación meteorológica de Barcena de Cicero, Treto, Cantabria (10 m.)



Fecha
DESCASC
Temp. máxima en grados centígrados (hora)
DESCASC
Temp. mínima en grados centígrados (hora)
DESCASC
Temp. media en grados centígrados
DESCASC
Racha de viento máxima en m/sg (hora)
DESCASC
Velocidad máxima media en intervalos de 10 minutos(hora)
DESCASC
Precipitaciones diarias en mm
DESCASC
Precipitaciones de 00:00 a 06:00 en mm
DESCASC
Precipitaciones de 06:00 a 12:00 en mm
DESCASC
Precipitaciones de 12:00 a 18:00 en mm
DESCASC
Precipitaciones de 18:00 a 24:00 en mm
DESCASC
05-12-2019 12.6 (15:40) 6.7 (23:59) 9.7 4.17 (22:00) 2.5 (22:10) 0.2 0 0.2 0 0
04-12-2019 12.8 (14:50) 1.2 (04:00) 7 6.11 (23:00) 3.61 (23:10) 0 0 0 0 0
03-12-2019 10.4 (12:50) 2.8 (00:00) 6.6 6.39 (00:50) 3.06 (16:30) 0 0 0 0 0
02-12-2019 11.7 (08:30) 8.9 (00:00) 10.3 10 (09:40) 5.56 (11:30) 11.4 6.4 5 0 0
01-12-2019 14.6 (15:40) 6 (00:00) 10.3 7.22 (01:00) 3.61 (01:00) 14.4 0 0 0.4 14
30-11-2019 15.9 (09:10) 7.5 (00:00) 11.7 13.89 (09:10) 7.5 (09:10) 4.4 0 1.2 3.2 0
29-11-2019 17.5 (14:20) 8.6 (00:00) 13.1 6.11 (01:40) 3.06 (01:50) 0 0 0 0 0
28-11-2019 13.3 (15:00) 9 (00:00) 11.2 5.28 (13:50) 2.78 (18:00) 7.8 1 3.2 3 0.6
27-11-2019 14.2 (15:20) 8.1 (00:00) 11.2 6.67 (17:50) 3.33 (16:40) 0.8 0 0 0.4 0.4
26-11-2019 21.7 (14:50) 8.8 (00:00) 15.3 16.11 (19:40) 7.5 (19:40) 4.4 0 0 0 4.4
25-11-2019 16.4 (13:50) 9.5 (00:00) 12.9 6.67 (02:00) 3.61 (02:00) 0.2 0 0.2 0 0
24-11-2019 14.1 (14:50) 10.1 (00:00) 12.1 11.39 (01:30) 4.17 (02:30) 10.4 5.4 3.6 0 1.4
23-11-2019 15.6 (00:30) 9.9 (00:00) 12.8 21.39 (07:00) 11.11 (08:00) 37 19.8 9.8 1.6 5.8
22-11-2019 18.6 (16:30) 5.5 (00:00) 12.1 17.78 (11:30) 8.33 (11:30) 2 0 0.2 1.8 0
21-11-2019 15.7 (14:40) 4.5 (00:00) 10.1 5.28 (00:40) 3.06 (01:00) 0 0 0 0 0
20-11-2019 15.5 (13:20) 3.6 (00:00) 9.5 8.06 (16:20) 4.44 (16:20) 0.2 0 0 0.2 0
19-11-2019 13.7 (14:20) 4.3 (00:00) 9 6.67 (04:00) 3.89 (07:20) 0 0 0 0 0
18-11-2019 12.3 (14:00) 7.3 (00:00) 9.8 6.11 (02:00) 3.06 (14:10) 2.6 1.2 0.4 0 1
17-11-2019 13.4 (15:50) 8.5 (00:00) 10.9 15.56 (19:20) 6.94 (20:00) 22.6 1.4 4.8 6 10.4
16-11-2019 10.2 (13:40) 3.5 (00:00) 6.8 13.06 (12:00) 6.11 (18:40) 27.4 1.8 11 12.2 2.4
15-11-2019 10.5 (08:50) 4.4 (00:00) 7.5 13.06 (14:30) 6.67 (08:50) 20 9.8 1.4 3 5.8
14-11-2019 12.8 (13:20) 5 (00:00) 8.9 11.39 (04:50) 6.11 (00:20) 34 25 0 0.4 8.6
13-11-2019 13.6 (13:50) 10 (00:00) 11.8 15 (23:10) 5.28 (23:10) 16.6 12.4 1.2 0.6 2.4
12-11-2019 14.7 (14:50) 9.6 (00:00) 12.2 7.78 (04:20) 3.33 (13:30) 14.6 7.2 0.4 0.6 6.4
11-11-2019 14.1 (11:00) 8.9 (00:00) 11.5 13.61 (11:20) 7.78 (11:10) 5 1 2.6 0.6 0.8
10-11-2019 13.6 (15:30) 8 (00:00) 10.8 13.06 (09:30) 5.83 (06:20) 33 13 11.2 3.6 5.2
09-11-2019 14.7 (15:20) 9.6 (00:00) 12.2 15.56 (15:20) 7.78 (15:20) 49.8 12.8 1.4 10 25.6
08-11-2019 12.6 (15:50) 8.2 (00:00) 10.4 16.94 (15:50) 8.61 (15:50) 39.4 3.4 15.6 10.8 9.6
07-11-2019 13.4 (00:00) 9 (00:00) 11.2 13.61 (14:30) 6.67 (10:40) 14.4 11.8 2.2 0.4 0
06-11-2019 16.1 (16:10) 11.3 (00:00) 13.7 10.28 (00:30) 5.56 (00:30) 13 0.8 4.6 0 7.6

Gráficas

Temp. máximas Temp. mínimas Temp. medias Precipitaciones Rachas de viento máximas Velocidades máximas media en intervalos de 10 minutos

Datos horarios

Fecha y hora oficial Temperatura (ºC) Velocidad del viento (km/h) Dirección del viento Racha (km/h) Dirección de racha Precipitación (mm) Presión (hPa) Tendencia (hPa) Humedad (%)
2019-12-05 23:00:00 8.8 8 Sur 14 Sur 0 -- -- 99
2019-12-05 22:00:00 8.6 8 Sur 15 Sur 0 -- -- 98
2019-12-05 21:00:00 9 3 Sur 9 Sur 0 -- -- 96
2019-12-05 20:00:00 9.9 5 Sur 8 Sur 0 -- -- 95
2019-12-05 19:00:00 11.1 2 Sudeste 6 Norte 0 -- -- 93
2019-12-05 18:00:00 11.8 4 Noroeste 6 Noroeste 0 -- -- 92
2019-12-05 17:00:00 12.4 2 Noroeste 4 Noroeste 0 -- -- 91
2019-12-05 16:00:00 12.5 2 Sur 6 Sur 0 -- -- 91
2019-12-05 15:00:00 12.2 4 Sudeste 9 Sur 0 -- -- 90
2019-12-05 14:00:00 11.7 5 Sur 11 Sur 0 -- -- 93
2019-12-05 13:00:00 11.2 4 Sur 8 Sur 0 -- -- 95
2019-12-05 12:00:00 10.7 5 Sur 11 Sur 0 -- -- 96
2019-12-05 11:00:00 9.9 6 Sur 9 Sur 0 -- -- 97
2019-12-05 10:00:00 9.5 6 Sur 12 Sur 0 -- -- 97
2019-12-05 09:00:00 9.3 5 Sur 7 Sur 0.2 -- -- 96
2019-12-05 08:00:00 9.2 5 Sur 10 Sur 0 -- -- 97
2019-12-05 07:00:00 9.1 5 Sur 8 Sudeste 0 -- -- 96
2019-12-05 06:00:00 9.4 0 Calma 6 Sudoeste 0 -- -- 95
2019-12-05 05:00:00 9.1 2 Sur 10 Nordeste 0 -- -- 96
2019-12-05 04:00:00 9.1 3 Noroeste 4 Este 0 -- -- 96
2019-12-05 03:00:00 8.9 2 Sudeste 4 Oeste 0 -- -- 96
2019-12-05 02:00:00 9.1 0 Calma 6 Noroeste 0 -- -- 93
2019-12-05 01:00:00 9.8 2 Noroeste 8 Noroeste 0 -- -- 91
2019-12-05 00:00:00 10.7 4 Sudoeste 22 Oeste 0 -- -- 90
2019-12-04 23:00:00 10.6 12 Oeste 22 Oeste 0 -- -- 92
2019-12-04 22:00:00 10.6 9 Noroeste 21 Oeste 0 -- -- 89
2019-12-04 21:00:00 10.6 7 Oeste 13 Oeste 0 -- -- 88
2019-12-04 20:00:00 10.7 3 Noroeste 10 Oeste 0 -- -- 86
2019-12-04 19:00:00 10.9 6 Oeste 11 Oeste 0 -- -- 85
2019-12-04 18:00:00 11.1 4 Noroeste 13 Oeste 0 -- -- 82
2019-12-04 17:00:00 11.5 5 Oeste 16 Oeste 0 -- -- 79
2019-12-04 16:00:00 12.3 8 Noroeste 19 Norte 0 -- -- 76
2019-12-04 15:00:00 12.8 10 Noroeste 19 Noroeste 0 -- -- 73
2019-12-04 14:00:00 11.6 5 Nordeste 13 Oeste 0 -- -- 74
2019-12-04 13:00:00 10.6 5 Nordeste 10 Nordeste 0 -- -- 74
2019-12-04 12:00:00 9.2 4 Sudeste 10 Sur 0 -- -- 85
2019-12-04 11:00:00 6.7 5 Sur 11 Sur 0 -- -- 96
2019-12-04 10:00:00 3.7 6 Sur 13 Sur 0 -- -- 100
2019-12-04 09:00:00 2.3 3 Sur 12 Sudoeste 0 -- -- 99
2019-12-04 08:00:00 1.3 3 Sur 10 Sur 0 -- -- 99
2019-12-04 07:00:00 1.4 4 Sudoeste 15 Sur 0 -- -- 99
2019-12-04 06:00:00 1.6 6 Sur 14 Sur 0 -- -- 99
2019-12-04 05:00:00 1.3 4 Sudoeste 10 Sur 0 -- -- 99
2019-12-04 04:00:00 1.2 4 Sur 8 Sur 0 -- -- 97
2019-12-04 03:00:00 2.4 2 Sur 10 Sur 0 -- -- 97
2019-12-04 02:00:00 2 4 Sur 11 Sur 0 -- -- 97
2019-12-04 01:00:00 2.6 6 Sur 10 Sur 0 -- -- 97
2019-12-04 00:00:00 3.3 6 Sudoeste 10 Sudoeste 0 -- -- 98
2019-12-03 23:00:00 3.1 6 Sur 11 Sur 0 -- -- 97
2019-12-03 22:00:00 3.1 6 Sudeste 11 Sur 0 -- -- 97
2019-12-03 21:00:00 3 2 Sur 6 Sur 0 -- -- 95
2019-12-03 20:00:00 3.9 0 Calma 8 Sur 0 -- -- 93
2019-12-03 19:00:00 4.8 0 Calma 4 Noroeste 0 -- -- 89
2019-12-03 18:00:00 6.8 3 Oeste 13 Este 0 -- -- 83
2019-12-03 17:00:00 8.6 8 Este 16 Este 0 -- -- 74
2019-12-03 16:00:00 9.5 6 Nordeste 14 Este 0 -- -- 70
2019-12-03 15:00:00 9.7 7 Este 17 Nordeste 0 -- -- 68
2019-12-03 14:00:00 10.1 8 Este 15 Este 0 -- -- 66
2019-12-03 13:00:00 10.3 8 Nordeste 17 Nordeste 0 -- -- 68
2019-12-03 12:00:00 9.5 6 Nordeste 12 Nordeste 0 -- -- 74
2019-12-03 11:00:00 8.9 3 Noroeste 4 Oeste 0 -- -- 84
2019-12-03 10:00:00 7.6 0 Calma 5 Noroeste 0 -- -- 90
2019-12-03 09:00:00 7.3 3 Sudoeste 6 Oeste 0 -- -- 88
2019-12-03 08:00:00 7.6 6 Sudoeste 10 Sudoeste 0 -- -- 83
2019-12-03 07:00:00 8.7 5 Norte 14 Norte 0 -- -- 74
2019-12-03 06:00:00 9 5 Norte 12 Norte 0 -- -- 74
2019-12-03 05:00:00 9.2 6 Nordeste 15 Norte 0 -- -- 73
2019-12-03 04:00:00 8.9 5 Norte 14 Norte 0 -- -- 78
2019-12-03 03:00:00 9.1 6 Norte 17 Norte 0 -- -- 74
2019-12-03 02:00:00 9.1 8 Nordeste 18 Nordeste 0 -- -- 74
2019-12-03 01:00:00 9.5 8 Nordeste 23 Este 0 -- -- 72
2019-12-03 00:00:00 9.6 11 Nordeste 24 Nordeste 0 -- -- 76
2019-12-02 23:00:00 9.7 5 Nordeste 19 Norte 0 -- -- 76
2019-12-02 22:00:00 9.9 9 Nordeste 22 Nordeste 0 -- -- 74
2019-12-02 21:00:00 9.9 9 Nordeste 19 Nordeste 0 -- -- 77
2019-12-02 20:00:00 9.7 7 Nordeste 14 Nordeste 0 -- -- 78
2019-12-02 19:00:00 9 2 Sur 17 Este 0 -- -- 87
2019-12-02 18:00:00 9.7 7 Norte 17 Norte 0 -- -- 76
2019-12-02 17:00:00 9.8 6 Nordeste 23 Nordeste 0 -- -- 73
2019-12-02 16:00:00 10 9 Nordeste 23 Nordeste 0 -- -- 76
2019-12-02 15:00:00 10.2 10 Nordeste 27 Nordeste 0 -- -- 75
2019-12-02 14:00:00 10.2 13 Nordeste 30 Este 0 -- -- 81
2019-12-02 13:00:00 10.8 14 Nordeste 29 Este 0 -- -- 83
2019-12-02 12:00:00 11.3 12 Nordeste 33 Nordeste 0 -- -- 82
2019-12-02 11:00:00 11.4 15 Nordeste 32 Nordeste 0 -- -- 81
2019-12-02 10:00:00 11.5 13 Nordeste 36 Nordeste 0 -- -- 84
2019-12-02 09:00:00 11.6 15 Nordeste 32 Norte 0 -- -- 86
2019-12-02 08:00:00 11.2 14 Nordeste 35 Este 1.6 -- -- 93
2019-12-02 07:00:00 10.4 9 Nordeste 18 Nordeste 3.4 -- -- 100
2019-12-02 06:00:00 9.6 5 Nordeste 12 Norte 1 -- -- 99
2019-12-02 05:00:00 9.4 3 Sur 12 Sudoeste 0 -- -- 99
2019-12-02 04:00:00 9.2 4 Sudoeste 8 Sudoeste 2.8 -- -- 99
2019-12-02 03:00:00 9.2 2 Sudeste 11 Sur 1.2 -- -- 99
2019-12-02 02:00:00 9.1 4 Sudoeste 5 Sudoeste 1.4 -- -- 98
2019-12-02 01:00:00 9.2 0 Calma 6 Sur 0 -- -- 98
2019-12-02 00:00:00 9.5 5 Sur 9 Sur 0.6 -- -- 97
2019-12-01 23:00:00 9.7 5 Sudoeste 18 Sur 3.6 -- -- 97
2019-12-01 22:00:00 9.9 4 Sudoeste 8 Oeste 6.4 -- -- 97
2019-12-01 21:00:00 10 4 Sur 17 Oeste 3.2 -- -- 95
2019-12-01 20:00:00 10.3 5 Oeste 11 Oeste 0 -- -- 94
2019-12-01 19:00:00 10.5 2 Sur 6 Sudoeste 0.2 -- -- 93
2019-12-01 18:00:00 11.1 4 Norte 19 Norte 0.2 -- -- 88
2019-12-01 17:00:00 13 3 Noroeste 8 Norte 0 -- -- 83
2019-12-01 16:00:00 14.2 6 Norte 10 Norte 0 -- -- 75
2019-12-01 15:00:00 13.9 0 Calma 6 Oeste 0 -- -- 80
2019-12-01 14:00:00 13.5 3 Noroeste 6 Norte 0 -- -- 81
2019-12-01 13:00:00 13.4 0 Calma 6 Noroeste 0.2 -- -- 75
2019-12-01 12:00:00 12.1 2 Este 6 Norte 0 -- -- 87
2019-12-01 11:00:00 10.4 0 Calma 4 Sudoeste 0 -- -- 97
2019-12-01 10:00:00 8.5 2 Sudoeste 7 Sur 0 -- -- 96
2019-12-01 09:00:00 8.1 2 Oeste 17 Sudeste 0 -- -- 94
2019-12-01 08:00:00 8.2 9 Sur 17 Sudeste 0 -- -- 93
2019-12-01 07:00:00 7.6 10 Sur 19 Sur 0 -- -- 98
2019-12-01 06:00:00 6.8 7 Sur 13 Sur 0 -- -- 99
2019-12-01 05:00:00 6.3 7 Sudoeste 13 Sur 0 -- -- 99
2019-12-01 04:00:00 6.4 10 Sur 17 Sur 0 -- -- 98
2019-12-01 03:00:00 6.5 6 Sur 21 Sudeste 0 -- -- 97
2019-12-01 02:00:00 6.8 7 Sur 17 Sur 0 -- -- 97
2019-12-01 01:00:00 7.4 13 Sur 26 Sudeste 0 -- -- 97
2019-12-01 00:00:00 7.6 8 Sudeste 25 Sur 0 -- -- 97
2019-11-30 23:00:00 8.2 12 Sur 24 Sudeste 0 -- -- 98
2019-11-30 22:00:00 8.7 11 Sur 19 Sudeste 0 -- -- 98
2019-11-30 21:00:00 9.2 9 Sur 16 Sur 0 -- -- 96
2019-11-30 20:00:00 10.1 3 Sudoeste 14 Noroeste 0 -- -- 96
2019-11-30 19:00:00 10.7 9 Sur 15 Sur 0 -- -- 97
2019-11-30 18:00:00 11.1 9 Sur 14 Sur 0 -- -- 96
2019-11-30 17:00:00 12 9 Sur 15 Sur 0 -- -- 96
2019-11-30 16:00:00 12 8 Sur 15 Sur 0.6 -- -- 96
2019-11-30 15:00:00 12.1 7 Sur 13 Sur 1.4 -- -- 96
2019-11-30 14:00:00 12.5 5 Sudoeste 13 Sudoeste 0.6 -- -- 95
2019-11-30 13:00:00 12.1 8 Sur 13 Sur 0.6 -- -- 95
2019-11-30 12:00:00 12.2 6 Sur 13 Sudoeste 0.8 -- -- 93
2019-11-30 11:00:00 12.6 7 Sudoeste 27 Noroeste 0 -- -- 92
2019-11-30 10:00:00 13.1 17 Oeste 50 Noroeste 0.4 -- -- 89
2019-11-30 09:00:00 14.8 9 Noroeste 33 Noroeste 0 -- -- 91
2019-11-30 08:00:00 13.6 4 Noroeste 18 Sudoeste 0 -- -- 91
2019-11-30 07:00:00 12.1 0 Calma 11 Sudoeste 0 -- -- 96
2019-11-30 06:00:00 10.6 4 Sur 16 Sudeste 0 -- -- 100
2019-11-30 05:00:00 9.1 4 Noroeste 8 Noroeste 0 -- -- 99
2019-11-30 04:00:00 8.3 2 Noroeste 10 Sudoeste 0 -- -- 98
2019-11-30 03:00:00 8 5 Sudoeste 23 Oeste 0 -- -- 98
2019-11-30 02:00:00 7.5 4 Sudoeste 11 Sudoeste 0 -- -- 99
2019-11-30 01:00:00 8 6 Sudoeste 14 Sudoeste 0 -- -- 99
2019-11-30 00:00:00 8.6 3 Sur 18 Sudeste 0 -- -- 97
2019-11-29 23:00:00 9.4 7 Sur 15 Sudeste 0 -- -- 98
2019-11-29 22:00:00 9.7 3 Sudoeste 10 Sur 0 -- -- 97
2019-11-29 21:00:00 10.6 8 Sur 12 Sudeste 0 -- -- 96
2019-11-29 20:00:00 10.5 4 Sur 6 Sur 0 -- -- 95
2019-11-29 19:00:00 11.4 0 Calma 4 Sur 0 -- -- 91
2019-11-29 18:00:00 13.2 0 Calma 12 Este 0 -- -- 86
2019-11-29 17:00:00 15.1 7 Nordeste 16 Este 0 -- -- 83
2019-11-29 16:00:00 16.2 5 Nordeste 14 Nordeste 0 -- -- 78
2019-11-29 15:00:00 16.8 9 Nordeste 14 Norte 0 -- -- 72
2019-11-29 14:00:00 17.4 3 Norte 12 Noroeste 0 -- -- 67
2019-11-29 13:00:00 17.2 3 Oeste 8 Sudoeste 0 -- -- 69
2019-11-29 12:00:00 15.5 3 Sudeste 11 Sudeste 0 -- -- 86
2019-11-29 11:00:00 14.6 7 Sudeste 9 Sudeste 0 -- -- 94
2019-11-29 10:00:00 12.9 4 Sur 8 Sudoeste 0 -- -- 93
2019-11-29 09:00:00 13.1 4 Sudoeste 8 Sudoeste 0 -- -- 93
2019-11-29 08:00:00 13.4 4 Sudoeste 9 Sudoeste 0 -- -- 94
2019-11-29 07:00:00 13.1 4 Sudoeste 10 Sudoeste 0 -- -- 95
2019-11-29 06:00:00 12.7 0 Calma 11 Oeste 0 -- -- 95
2019-11-29 05:00:00 12.5 5 Sudoeste 10 Sudoeste 0 -- -- 96
2019-11-29 04:00:00 12.1 0 Calma 15 Oeste 0 -- -- 94
2019-11-29 03:00:00 13.2 6 Oeste 15 Oeste 0 -- -- 96
2019-11-29 02:00:00 13.2 9 Oeste 22 Oeste 0 -- -- 99
2019-11-29 01:00:00 11.6 0 Calma 5 Sur 0 -- -- 99
2019-11-29 00:00:00 11.5 4 Sudeste 8 Sur 0.4 -- -- 98
2019-11-28 23:00:00 11.5 3 Sudoeste 11 Sur 0.2 -- -- 98
2019-11-28 22:00:00 11.3 3 Sudoeste 12 Sur 0 -- -- 98
2019-11-28 21:00:00 11.3 5 Sur 10 Sur 0 -- -- 97
2019-11-28 20:00:00 11.4 0 Calma 7 Sur 0 -- -- 95
2019-11-28 19:00:00 12 6 Sudeste 14 Este 0 -- -- 94
2019-11-28 18:00:00 11.7 10 Sur 17 Sur 0.6 -- -- 96
2019-11-28 17:00:00 12.3 5 Sur 8 Sur 1.8 -- -- 96
2019-11-28 16:00:00 12.8 3 Sur 8 Sur 0.6 -- -- 94
2019-11-28 15:00:00 13.3 3 Sur 5 Sur 0 -- -- 94
2019-11-28 14:00:00 12.9 5 Sur 19 Sur 0 -- -- 94
2019-11-28 13:00:00 12.2 7 Sur 13 Sur 0 -- -- 96
2019-11-28 12:00:00 11.9 6 Sur 11 Sur 0 -- -- 96
2019-11-28 11:00:00 11.5 7 Sur 11 Sudeste 0 -- -- 97
2019-11-28 10:00:00 11.9 5 Sur 9 Sur 0.2 -- -- 97
2019-11-28 09:00:00 11.6 3 Sudoeste 15 Oeste 0.2 -- -- 98
2019-11-28 08:00:00 11.3 6 Noroeste 13 Noroeste 1.8 -- -- 100
2019-11-28 07:00:00 10.2 6 Sur 12 Sur 1 -- -- 98
2019-11-28 06:00:00 10 6 Sur 14 Sur 0.2 -- -- 98
2019-11-28 05:00:00 9.9 8 Sur 14 Sur 0.2 -- -- 99
2019-11-28 04:00:00 9.5 6 Sur 12 Sur 0.4 -- -- 99
2019-11-28 03:00:00 9.1 6 Sudoeste 14 Sur 0.2 -- -- 98
2019-11-28 02:00:00 9.3 5 Sur 13 Sur 0 -- -- 98
2019-11-28 01:00:00 10 6 Sur 14 Sudeste 0 -- -- 97
2019-11-28 00:00:00 10.3 4 Sur 11 Sur 0.2 -- -- 96
2019-11-27 23:00:00 10.6 7 Sur 12 Sur 0 -- -- 95
2019-11-27 22:00:00 11 3 Oeste 14 Sudeste 0 -- -- 94
2019-11-27 21:00:00 11.3 9 Sur 18 Sur 0 -- -- 94
2019-11-27 20:00:00 11.5 8 Sur 13 Sudeste 0.2 -- -- 93
2019-11-27 19:00:00 11.8 5 Sudoeste 15 Sur 0 -- -- 90
2019-11-27 18:00:00 12.4 10 Sur 24 Sur 0 -- -- 86
2019-11-27 17:00:00 12.6 9 Sur 16 Sudoeste 0.2 -- -- 87
2019-11-27 16:00:00 13.9 8 Noroeste 18 Norte 0.2 -- -- 77
2019-11-27 15:00:00 14.1 3 Sudeste 7 Sudeste 0 -- -- 88
2019-11-27 14:00:00 13.9 2 Sur 6 Sudeste 0 -- -- 86
2019-11-27 06:00:00 -- -- -- -- -- -- -- -- --
2019-11-27 05:00:00 9.9 11 Sur 17 Sur 0 -- -- 99
2019-11-27 04:00:00 9.7 0 Calma 15 Sur 0 -- -- 99
2019-11-27 03:00:00 9.5 3 Oeste 11 Sur 0 -- -- 98
2019-11-27 02:00:00 9.8 5 Sur 15 Sudoeste 0 -- -- 97
2019-11-27 01:00:00 9.3 7 Sur 16 Sur 0 -- -- 97
2019-11-27 00:00:00 10.6 4 Sur 10 Sur 0 -- -- 95
2019-11-26 23:00:00 11.3 4 Sur 8 Sur 0 -- -- 92
2019-11-26 22:00:00 12.9 2 Sudeste 20 Noroeste 0 -- -- 86
2019-11-26 21:00:00 14.2 15 Oeste 56 Oeste 4.4 -- -- 81
2019-11-26 20:00:00 20.7 21 Sudoeste 58 Sudoeste 0 -- -- 42
2019-11-26 19:00:00 21 14 Sudoeste 55 Oeste 0 -- -- 41
2019-11-26 18:00:00 21.3 18 Sudoeste 47 Sudoeste 0 -- -- 42
2019-11-26 17:00:00 19 10 Sur 28 Sudoeste 0 -- -- 63
2019-11-26 16:00:00 21.3 12 Sudoeste 39 Sur 0 -- -- 47
2019-11-26 15:00:00 21.5 14 Sudoeste 42 Sudoeste 0 -- -- 45
2019-11-26 14:00:00 21.2 12 Sudoeste 48 Oeste 0 -- -- 52
2019-11-26 13:00:00 21.2 15 Sudoeste 42 Sudoeste 0 -- -- 53
2019-11-26 12:00:00 21.3 8 Sudoeste 23 Sudoeste 0 -- -- 55
2019-11-26 11:00:00 19.1 8 Sur 30 Sudeste 0 -- -- 66
2019-11-26 10:00:00 16.3 2 Sur 14 Sudoeste 0 -- -- 76
2019-11-26 09:00:00 15.8 14 Sur 32 Sudeste 0 -- -- 73
2019-11-26 08:00:00 11.6 0 Calma 15 Sudeste 0 -- -- 88
2019-11-26 07:00:00 10.4 3 Sur 13 Sudeste 0 -- -- 91
2019-11-26 06:00:00 11.7 3 Sur 19 Sudeste 0 -- -- 81
2019-11-26 05:00:00 15.1 13 Sur 25 Sur 0 -- -- 68
2019-11-26 04:00:00 11.5 11 Sur 20 Sur 0 -- -- 100
2019-11-26 03:00:00 8.9 4 Oeste 8 Oeste 0 -- -- 100
2019-11-26 02:00:00 9 5 Sur 9 Sudoeste 0 -- -- 99
2019-11-26 01:00:00 9.5 2 Oeste 14 Sur 0 -- -- 99
2019-11-26 00:00:00 9.5 4 Sur 9 Sur 0 -- -- 98
2019-11-25 23:00:00 10.2 0 Calma 8 Sur 0 -- -- 98
2019-11-25 22:00:00 11.2 0 Calma -- -- 0 -- -- 96
2019-11-25 21:00:00 12.8 0 Calma 4 Norte 0 -- -- 95
2019-11-25 20:00:00 13.4 0 Calma -- -- 0 -- -- 94
2019-11-25 19:00:00 13.9 0 Calma 3 Sudeste 0 -- -- 93
2019-11-25 18:00:00 14.5 0 Calma 3 Sur 0 -- -- 89
2019-11-25 17:00:00 15.2 0 Calma 8 Oeste 0 -- -- 83
2019-11-25 16:00:00 15.7 2 Oeste 11 Oeste 0 -- -- 80
2019-11-25 15:00:00 16 5 Noroeste 12 Noroeste 0 -- -- 79
2019-11-25 14:00:00 16.3 8 Noroeste 19 Noroeste 0 -- -- 78
2019-11-25 13:00:00 16 7 Noroeste 13 Noroeste 0 -- -- 79
2019-11-25 12:00:00 15.6 0 Calma 7 Sudeste 0 -- -- 84
2019-11-25 11:00:00 13.5 2 Sur 15 Sudeste 0 -- -- 94
2019-11-25 10:00:00 12.5 5 Sur 14 Sur 0 -- -- 96
2019-11-25 09:00:00 11.6 3 Sudoeste 12 Sur 0 -- -- 97
2019-11-25 08:00:00 11.6 3 Sur 11 Norte 0.2 -- -- 95
2019-11-25 07:00:00 11.8 3 Sur 12 Sur 0 -- -- 91
2019-11-25 06:00:00 11.9 0 Calma 14 Norte 0 -- -- 88
2019-11-25 05:00:00 12.7 3 Sudoeste 14 Norte 0 -- -- 82
2019-11-25 04:00:00 13.5 7 Sudoeste 16 Sudoeste 0 -- -- 76
2019-11-25 03:00:00 12.3 6 Sur 16 Sur 0 -- -- 81
2019-11-25 02:00:00 12.9 13 Sur 24 Sur 0 -- -- 82
2019-11-25 01:00:00 11.6 7 Sur 18 Sur 0 -- -- 94
2019-11-25 00:00:00 10.8 0 Calma 9 Sudoeste 0 -- -- 96
2019-11-24 23:00:00 10.7 3 Sudoeste 6 Oeste 0 -- -- 95
2019-11-24 22:00:00 11.5 7 Sudoeste 16 Sur 0.6 -- -- 91
2019-11-24 21:00:00 12.3 6 Sudeste 23 Sur 0.6 -- -- 78
2019-11-24 20:00:00 11.7 8 Sur 19 Sur 0.2 -- -- 81
2019-11-24 19:00:00 11.5 4 Sur 10 Sudoeste 0 -- -- 86
2019-11-24 18:00:00 12 5 Sudeste 17 Sur 0 -- -- 74
2019-11-24 17:00:00 13.5 4 Sudeste 11 Sudeste 0 -- -- 76
2019-11-24 16:00:00 13.8 2 Sudeste 10 Este 0 -- -- 77
2019-11-24 15:00:00 14.1 3 Sudeste 10 Sudeste 0 -- -- 73
2019-11-24 14:00:00 13.6 5 Sudeste 13 Sur 0 -- -- 75
2019-11-24 13:00:00 12.7 8 Sur 13 Sur 0 -- -- 82
2019-11-24 12:00:00 12 8 Sur 16 Sudeste 0 -- -- 89
2019-11-24 11:00:00 11.1 5 Sur 11 Sur 0 -- -- 89
2019-11-24 10:00:00 10.9 3 Noroeste 13 Sudoeste 0 -- -- 84
2019-11-24 09:00:00 10.4 5 Sudoeste 17 Sudoeste 0 -- -- 89
2019-11-24 08:00:00 10.3 6 Sudoeste 23 Oeste 0.6 -- -- 91
2019-11-24 07:00:00 10.1 6 Oeste 21 Oeste 3 -- -- 91
2019-11-24 06:00:00 10.4 12 Oeste 26 Oeste 1.6 -- -- 86
2019-11-24 05:00:00 10.4 7 Sudoeste 24 Sudoeste 0.6 -- -- 86
2019-11-24 04:00:00 10.4 10 Sudoeste 24 Oeste 0.6 -- -- 86
2019-11-24 03:00:00 10.3 11 Oeste 30 Oeste 0.4 -- -- 86
2019-11-24 02:00:00 10.1 11 Oeste 41 Oeste 1 -- -- 88
2019-11-24 01:00:00 10.2 14 Oeste 29 Oeste 1.2 -- -- 87
2019-11-24 00:00:00 10.1 12 Sudoeste 26 Sudoeste 1.6 -- -- 88
2019-11-23 23:00:00 10.1 8 Oeste 23 Sudoeste 1 -- -- 86
2019-11-23 22:00:00 10.1 11 Sudoeste 30 Oeste 1.4 -- -- 83
2019-11-23 21:00:00 10.5 10 Oeste 45 Oeste 0.4 -- -- 81
2019-11-23 20:00:00 10.4 12 Oeste 28 Sudoeste 0.6 -- -- 84
2019-11-23 19:00:00 10.1 14 Sudoeste 37 Oeste 0.8 -- -- 88
2019-11-23 18:00:00 10.2 15 Oeste 35 Oeste 1 -- -- 87
2019-11-23 17:00:00 11.2 15 Oeste 50 Oeste 0.6 -- -- 84
2019-11-23 16:00:00 12 21 Oeste 42 Noroeste 0 -- -- 77
2019-11-23 15:00:00 13.6 15 Oeste 46 Oeste 0 -- -- 73
2019-11-23 14:00:00 13.7 20 Noroeste 49 Oeste 0 -- -- 66
2019-11-23 13:00:00 13.2 21 Oeste 58 Noroeste 0 -- -- 70
2019-11-23 12:00:00 12.5 23 Noroeste 57 Noroeste 0.8 -- -- 71
2019-11-23 11:00:00 12.1 23 Oeste 61 Oeste 0 -- -- 74
2019-11-23 10:00:00 12.5 24 Noroeste 64 Oeste 0 -- -- 72
2019-11-23 09:00:00 12.4 35 Noroeste 68 Oeste 0.6 -- -- 64
2019-11-23 08:00:00 11.2 40 Noroeste 76 Oeste 2.6 -- -- 88
2019-11-23 07:00:00 11.7 34 Noroeste 77 Oeste 5.8 -- -- 89
2019-11-23 06:00:00 11.5 30 Noroeste 59 Noroeste 6.8 -- -- 93
2019-11-23 05:00:00 11.6 20 Oeste 51 Noroeste 4.8 -- -- 93
2019-11-23 04:00:00 11 15 Oeste 37 Sudoeste 6.6 -- -- 90
2019-11-23 03:00:00 11.7 5 Sudoeste 19 Oeste 1.6 -- -- 87
2019-11-23 02:00:00 13.1 12 Noroeste 20 Oeste 0 -- -- 73
2019-11-23 01:00:00 15.3 12 Oeste 28 Oeste 0 -- -- 54
2019-11-23 00:00:00 13.7 0 Calma 31 Sudoeste 0 -- -- 62
2019-11-22 23:00:00 15.7 14 Sudoeste 46 Sur 0 -- -- 49
2019-11-22 22:00:00 14.5 11 Sur 25 Sudoeste 0 -- -- 55
2019-11-22 21:00:00 10.7 5 Noroeste 10 Noroeste 0 -- -- 94
2019-11-22 20:00:00 10.8 3 Sudoeste 7 Sur 0 -- -- 93
2019-11-22 19:00:00 11.6 5 Sur 12 Sur 0 -- -- 90
2019-11-22 18:00:00 13.4 5 Oeste 40 Oeste 1.4 -- -- 84
2019-11-22 17:00:00 15.9 24 Noroeste 52 Oeste 0.4 -- -- 68
2019-11-22 16:00:00 17.6 19 Sur 35 Sur 0 -- -- 59
2019-11-22 15:00:00 18.4 21 Sur 50 Sudeste 0 -- -- 56
2019-11-22 14:00:00 15.5 23 Sur 54 Sudeste 0 -- -- 64
2019-11-22 13:00:00 15.9 24 Sur 56 Sur 0 -- -- 60
2019-11-22 12:00:00 15.8 21 Sur 64 Sudoeste 0 -- -- 56
2019-11-22 11:00:00 15.4 22 Sur 45 Sur 0 -- -- 56
2019-11-22 10:00:00 14.4 22 Sur 56 Sudeste 0.2 -- -- 57
2019-11-22 09:00:00 14.7 18 Sur 39 Sur 0 -- -- 57
2019-11-22 08:00:00 14.5 18 Sur 38 Este 0 -- -- 54
2019-11-22 07:00:00 14.3 17 Sur 28 Sudeste 0 -- -- 55
2019-11-22 06:00:00 13.8 13 Sur 33 Sur 0 -- -- 56
2019-11-22 05:00:00 13.2 14 Sur 31 Sudoeste 0 -- -- 61
2019-11-22 04:00:00 11.6 11 Sur 23 Sur 0 -- -- 66
2019-11-22 03:00:00 6 5 Noroeste 10 Noroeste 0 -- -- 93
2019-11-22 02:00:00 6.1 5 Noroeste 9 Noroeste 0 -- -- 95
2019-11-22 01:00:00 5.7 5 Noroeste 10 Noroeste 0 -- -- 96
2019-11-22 00:00:00 6 0 Calma 7 Sudeste 0 -- -- 95
2019-11-21 23:00:00 5.7 2 Sur 9 Sur 0 -- -- 94
2019-11-21 22:00:00 6.1 5 Sudoeste 12 Sur 0 -- -- 95
2019-11-21 21:00:00 6.2 8 Sur 13 Sur 0 -- -- 92
2019-11-21 20:00:00 7.6 8 Sur 13 Sur 0 -- -- 91
2019-11-21 19:00:00 8.2 8 Sur 15 Sur 0 -- -- 89
2019-11-21 18:00:00 9.9 5 Sur 10 Sudeste 0 -- -- 79
2019-11-21 17:00:00 13.2 0 Calma 10 Noroeste 0 -- -- 65
2019-11-21 16:00:00 14.7 8 Norte 16 Norte 0 -- -- 51
2019-11-21 15:00:00 15.7 7 Norte 13 Nordeste 0 -- -- 49
2019-11-21 14:00:00 15.3 8 Noroeste 14 Oeste 0 -- -- 49
2019-11-21 13:00:00 14.2 7 Noroeste 15 Noroeste 0 -- -- 57
2019-11-21 12:00:00 14.1 4 Oeste 16 Oeste 0 -- -- 63
2019-11-21 11:00:00 13.1 2 Sudeste 11 Sur 0 -- -- 73
2019-11-21 10:00:00 8.9 9 Sur 13 Sur 0 -- -- 94
2019-11-21 09:00:00 6 2 Sur 6 Noroeste 0 -- -- 97
2019-11-21 08:00:00 5.6 4 Sur 11 Sur 0 -- -- 97
2019-11-21 07:00:00 4.7 3 Sur 6 Noroeste 0 -- -- 96
2019-11-21 06:00:00 5.4 0 Calma 6 Noroeste 0 -- -- 94
2019-11-21 05:00:00 5.9 3 Noroeste 8 Noroeste 0 -- -- 95
2019-11-21 04:00:00 6.2 2 Noroeste 8 Noroeste 0 -- -- 94
2019-11-21 03:00:00 5.9 4 Noroeste 7 Oeste 0 -- -- 92
2019-11-21 02:00:00 6.3 0 Calma 14 Sur 0 -- -- 87
2019-11-21 01:00:00 10 11 Sur 19 Sudeste 0 -- -- 73
2019-11-21 00:00:00 7.6 5 Oeste 7 Oeste 0 -- -- 85
2019-11-20 23:00:00 10.8 7 Noroeste 16 Sudoeste 0 -- -- 69
2019-11-20 22:00:00 11.4 7 Sur 22 Sur 0 -- -- 67
2019-11-20 21:00:00 11.5 7 Sudoeste 15 Sur 0 -- -- 68
2019-11-20 20:00:00 11.7 5 Sur 24 Sudeste 0 -- -- 71
2019-11-20 19:00:00 11 3 Sudoeste 14 Sudeste 0 -- -- 78
2019-11-20 18:00:00 11.9 3 Noroeste 14 Sudeste 0 -- -- 73
2019-11-20 17:00:00 12.9 3 Este 29 Sur 0 -- -- 67
2019-11-20 16:00:00 13.1 13 Sur 26 Sur 0.2 -- -- 66
2019-11-20 15:00:00 13.2 8 Sur 13 Sur 0 -- -- 69
2019-11-20 14:00:00 14.1 7 Sudeste 20 Sudeste 0 -- -- 65
2019-11-20 13:00:00 15.1 10 Sur 20 Sudeste 0 -- -- 61
2019-11-20 12:00:00 14.5 5 Sudoeste 13 Sur 0 -- -- 66
2019-11-20 11:00:00 9.7 2 Noroeste 8 Sudoeste 0 -- -- 88
2019-11-20 10:00:00 7.2 3 Sudoeste 7 Sur 0 -- -- 93
2019-11-20 09:00:00 5 2 Noroeste 9 Sur 0 -- -- 95
2019-11-20 08:00:00 4.2 6 Sudoeste 12 Sur 0 -- -- 96
2019-11-20 07:00:00 3.9 3 Sudoeste 8 Sudoeste 0 -- -- 96
2019-11-20 06:00:00 3.7 6 Sur 13 Sudoeste 0 -- -- 96
2019-11-20 05:00:00 3.7 8 Sur 12 Sur 0 -- -- 96
2019-11-20 04:00:00 4.1 3 Sur 16 Sur 0 -- -- 96
2019-11-20 03:00:00 4.4 9 Sur 17 Sur 0 -- -- 96
2019-11-20 02:00:00 5 9 Sur 17 Sur 0 -- -- 96
2019-11-20 01:00:00 5.2 4 Sudoeste 13 Sudoeste 0 -- -- 95
2019-11-20 00:00:00 5.6 5 Sur 14 Sudeste 0 -- -- 96
2019-11-19 23:00:00 5.7 6 Sur 14 Sur 0 -- -- 96
2019-11-19 22:00:00 6.3 8 Sur 13 Sur 0 -- -- 96
2019-11-19 21:00:00 7 6 Sur 12 Sudeste 0 -- -- 95
2019-11-19 20:00:00 7.7 4 Sur 12 Sur 0 -- -- 93
2019-11-19 19:00:00 8.4 6 Sur 18 Sudeste 0 -- -- 91
2019-11-19 18:00:00 9.5 6 Sur 9 Sur 0 -- -- 86
2019-11-19 17:00:00 11.7 6 Oeste 9 Este 0 -- -- 79
2019-11-19 16:00:00 12.9 8 Este 12 Este 0 -- -- 67
2019-11-19 15:00:00 13.5 5 Este 15 Sudeste 0 -- -- 63
2019-11-19 14:00:00 13.3 4 Este 10 Este 0 -- -- 66
2019-11-19 13:00:00 12.8 6 Este 14 Sur 0 -- -- 68
2019-11-19 12:00:00 10.4 9 Sudeste 15 Sudeste 0 -- -- 82
2019-11-19 11:00:00 8.5 11 Sur 23 Sudeste 0 -- -- 94
2019-11-19 10:00:00 6 8 Sur 21 Sudeste 0 -- -- 99
2019-11-19 09:00:00 4.7 10 Sur 22 Sur 0 -- -- 99
2019-11-19 08:00:00 4.5 11 Sur 23 Sudeste 0 -- -- 99
2019-11-19 07:00:00 4.9 13 Sur 22 Sur 0 -- -- 99
2019-11-19 06:00:00 4.8 11 Sur 20 Sur 0 -- -- 99
2019-11-19 05:00:00 5.1 9 Sur 24 Sur 0 -- -- 99
2019-11-19 04:00:00 6.1 12 Sur 24 Sur 0 -- -- 98
2019-11-19 03:00:00 7 10 Sur 18 Sur 0 -- -- 98
2019-11-19 02:00:00 6.9 8 Sur 15 Sur 0 -- -- 97
2019-11-19 01:00:00 7.6 7 Sur 14 Sudeste 0 -- -- 98
2019-11-19 00:00:00 7.3 7 Sur 13 Sur 0 -- -- 98
2019-11-18 23:00:00 7.7 6 Sur 14 Sur 0 -- -- 98
2019-11-18 22:00:00 7.6 6 Sur 12 Sur 0 -- -- 97
2019-11-18 21:00:00 8 5 Sur 10 Sur 0 -- -- 96
2019-11-18 20:00:00 9 5 Sur 9 Sur 0.4 -- -- 94
2019-11-18 19:00:00 9.5 4 Sur 14 Oeste 0.6 -- -- 90
2019-11-18 18:00:00 10.5 8 Oeste 19 Oeste 0 -- -- 83
2019-11-18 17:00:00 11.3 4 Oeste 8 Oeste 0 -- -- 80
2019-11-18 16:00:00 11.6 0 Calma 6 Nordeste 0 -- -- 75
2019-11-18 15:00:00 11.8 4 Noroeste 16 Noroeste 0 -- -- 69
2019-11-18 14:00:00 12.3 10 Noroeste 17 Noroeste 0 -- -- 63
2019-11-18 13:00:00 11.6 6 Noroeste 16 Nordeste 0 -- -- 67
2019-11-18 12:00:00 10.5 7 Norte 20 Norte 0 -- -- 80
2019-11-18 11:00:00 9.2 7 Sur 11 Oeste 0.4 -- -- 94
2019-11-18 10:00:00 9.1 7 Sur 14 Sudeste 0 -- -- 96
2019-11-18 09:00:00 7.8 4 Sur 9 Sur 0 -- -- 98
2019-11-18 08:00:00 8.2 3 Sur 7 Sudeste 0 -- -- 97
2019-11-18 07:00:00 8.1 4 Sur 8 Sur 0 -- -- 97
2019-11-18 06:00:00 8.1 5 Sur 9 Sudeste 0 -- -- 97
2019-11-18 05:00:00 8.2 5 Sur 8 Sur 0 -- -- 96
2019-11-18 04:00:00 8.7 3 Sudeste 14 Oeste 0.2 -- -- 93
2019-11-18 03:00:00 9.1 6 Oeste 13 Oeste 0.2 -- -- 94
2019-11-18 02:00:00 9.4 9 Noroeste 22 Norte 0.8 -- -- 92
2019-11-18 01:00:00 9.7 2 Noroeste 11 Norte 0 -- -- 88
2019-11-18 00:00:00 10.6 7 Norte 23 Nordeste 0 -- -- 85
2019-11-17 23:00:00 9.3 0 Calma 16 Noroeste 2 -- -- 95
2019-11-17 22:00:00 9.5 8 Oeste 22 Noroeste 3.8 -- -- 95
2019-11-17 21:00:00 9.4 9 Oeste 44 Oeste 3.6 -- -- 93
2019-11-17 20:00:00 9.1 25 Oeste 56 Sudoeste 1 -- -- 84
2019-11-17 19:00:00 10.8 17 Oeste 43 Oeste 0 -- -- 72
2019-11-17 18:00:00 11 10 Oeste 34 Oeste 0.6 -- -- 78
2019-11-17 17:00:00 11.4 12 Oeste 55 Noroeste 1.2 -- -- 78
2019-11-17 16:00:00 13.4 13 Oeste 33 Sudoeste 0 -- -- 71
2019-11-17 15:00:00 12.6 10 Oeste 32 Sudoeste 0.2 -- -- 84
2019-11-17 14:00:00 11.7 12 Oeste 45 Oeste 2.8 -- -- 88
2019-11-17 13:00:00 13 9 Oeste 36 Noroeste 1.2 -- -- 87
2019-11-17 12:00:00 11.5 11 Oeste 35 Oeste 1.6 -- -- 94
2019-11-17 11:00:00 10.7 9 Sudoeste 18 Sudoeste 0.6 -- -- 98
2019-11-17 10:00:00 9.3 8 Sur 18 Sur 1 -- -- 97
2019-11-17 09:00:00 8.9 6 Sur 18 Sur 1.6 -- -- 96
2019-11-17 08:00:00 8.9 10 Sur 20 Sur 0 -- -- 96
2019-11-17 07:00:00 8.7 9 Sur 20 Sudeste 0 -- -- 97
2019-11-17 06:00:00 8.6 7 Sur 14 Sur 0.6 -- -- 96
2019-11-17 05:00:00 8.7 6 Sur 10 Sur 0.2 -- -- 94
2019-11-17 04:00:00 8.7 6 Sur 11 Sur 0.2 -- -- 92
2019-11-17 03:00:00 8.9 5 Sur 20 Oeste 0.2 -- -- 88
2019-11-17 02:00:00 9 3 Sur 15 Sudoeste 0 -- -- 86
2019-11-17 01:00:00 8.8 5 Sudoeste 14 Sudoeste 0.2 -- -- 84
2019-11-17 00:00:00 8.8 9 Sudoeste 28 Sudoeste 0.2 -- -- 84
2019-11-16 23:00:00 8.9 6 Sudoeste 28 Oeste 0 -- -- 81
2019-11-16 22:00:00 8.7 10 Oeste 26 Oeste 0 -- -- 80
2019-11-16 21:00:00 8.5 10 Sudoeste 26 Sudoeste 1.2 -- -- 84
2019-11-16 20:00:00 8.5 8 Sudoeste 21 Oeste 0.4 -- -- 84
2019-11-16 19:00:00 8.9 12 Oeste 41 Noroeste 0.6 -- -- 84
2019-11-16 18:00:00 9.2 9 Oeste 33 Sudoeste 1 -- -- 87
2019-11-16 17:00:00 9.1 9 Oeste 30 Sudoeste 0.8 -- -- 88
2019-11-16 16:00:00 9.1 15 Oeste 34 Oeste 2.4 -- -- 90
2019-11-16 15:00:00 9.7 15 Oeste 40 Oeste 1.8 -- -- 88
2019-11-16 14:00:00 9.4 9 Oeste 35 Oeste 3.6 -- -- 88
2019-11-16 13:00:00 9.9 12 Oeste 36 Oeste 2.6 -- -- 86
2019-11-16 12:00:00 9.3 22 Oeste 47 Noroeste 2.8 -- -- 89
2019-11-16 11:00:00 8.5 11 Oeste 30 Oeste 3.4 -- -- 91
2019-11-16 10:00:00 8.5 17 Oeste 36 Oeste 2.4 -- -- 86
2019-11-16 09:00:00 8.9 13 Oeste 41 Oeste 0.4 -- -- 79
2019-11-16 08:00:00 8 8 Sudoeste 30 Oeste 1.2 -- -- 87
2019-11-16 07:00:00 7.7 9 Sudoeste 29 Sudoeste 0.8 -- -- 90
2019-11-16 06:00:00 7.4 10 Sudoeste 31 Oeste 0.6 -- -- 95
2019-11-16 05:00:00 5.2 8 Sur 15 Sur 0.4 -- -- 98
2019-11-16 04:00:00 4.6 7 Sur 18 Sur 0.8 -- -- 98
2019-11-16 03:00:00 3.5 8 Sur 19 Sur 0 -- -- 97
2019-11-16 02:00:00 3.7 8 Sur 18 Sur 0 -- -- 96
2019-11-16 01:00:00 4.2 10 Sur 18 Sur 0 -- -- 95
2019-11-16 00:00:00 4.4 5 Sur 15 Sur 0 -- -- 94
2019-11-15 23:00:00 5.4 10 Sur 18 Sudeste 0 -- -- 94
2019-11-15 22:00:00 6 10 Sur 21 Sudoeste 1.6 -- -- 95
2019-11-15 21:00:00 6 6 Sudoeste 23 Oeste 3.4 -- -- 92
2019-11-15 20:00:00 6.3 6 Oeste 17 Oeste 0.8 -- -- 90
2019-11-15 19:00:00 6.4 4 Sudoeste 16 Sudeste 0 -- -- 89
2019-11-15 18:00:00 6.5 8 Sur 26 Sur 0.6 -- -- 88
2019-11-15 17:00:00 7 5 Sudoeste 24 Sur 0 -- -- 83
2019-11-15 16:00:00 7 13 Sudoeste 42 Oeste 0 -- -- 85
2019-11-15 15:00:00 6.9 19 Oeste 47 Oeste 0.2 -- -- 88
2019-11-15 14:00:00 7 16 Oeste 46 Oeste 2.2 -- -- 87
2019-11-15 13:00:00 8.5 18 Oeste 37 Oeste 0 -- -- 83
2019-11-15 12:00:00 9.7 6 Oeste 25 Norte 0.4 -- -- 87
2019-11-15 11:00:00 9.9 12 Norte 37 Norte 0.4 -- -- 80
2019-11-15 10:00:00 9.8 21 Norte 44 Norte 0.2 -- -- 81
2019-11-15 09:00:00 10.2 21 Noroeste 46 Norte 0.4 -- -- 77
2019-11-15 08:00:00 10.1 16 Noroeste 40 Oeste 0 -- -- 76
2019-11-15 07:00:00 9.1 10 Oeste 26 Oeste 0 -- -- 86
2019-11-15 06:00:00 7.9 10 Sudoeste 39 Oeste 1.8 -- -- 90
2019-11-15 05:00:00 8 15 Oeste 39 Noroeste 4.6 -- -- 90
2019-11-15 04:00:00 8.4 16 Oeste 33 Sudoeste 1.4 -- -- 85
2019-11-15 03:00:00 7.8 13 Sudoeste 30 Sudoeste 0.8 -- -- 87
2019-11-15 02:00:00 8.2 9 Oeste 24 Sudoeste 1 -- -- 81
2019-11-15 01:00:00 7.4 7 Sudoeste 17 Sudoeste 0.2 -- -- 82
2019-11-15 00:00:00 6.5 8 Sur 17 Sudoeste 0 -- -- 89
2019-11-14 23:00:00 5.3 9 Sur 16 Sur 0 -- -- 95
2019-11-14 22:00:00 5.1 8 Sur 18 Sur 0 -- -- 93
2019-11-14 21:00:00 5.4 10 Sur 17 Sur 0 -- -- 93
2019-11-14 20:00:00 5.6 9 Sudoeste 21 Oeste 3 -- -- 92
2019-11-14 19:00:00 6.5 12 Oeste 21 Oeste 5.6 -- -- 88
2019-11-14 18:00:00 8.1 8 Noroeste 22 Noroeste 0.4 -- -- 84
2019-11-14 17:00:00 9.2 8 Noroeste 25 Nordeste 0 -- -- 75
2019-11-14 16:00:00 9.7 7 Noroeste 21 Norte 0 -- -- 74
2019-11-14 15:00:00 10.4 8 Nordeste 24 Norte 0 -- -- 74
2019-11-14 14:00:00 12.4 8 Noroeste 18 Oeste 0 -- -- 49
2019-11-14 13:00:00 12.4 7 Oeste 16 Noroeste 0 -- -- 51
2019-11-14 12:00:00 12 9 Sudoeste 20 Sudoeste 0 -- -- 49
2019-11-14 11:00:00 10.6 6 Oeste 19 Oeste 0 -- -- 60
2019-11-14 10:00:00 9.8 9 Sudoeste 22 Sudoeste 0 -- -- 64
2019-11-14 09:00:00 8.6 8 Sudoeste 24 Oeste 0 -- -- 67
2019-11-14 08:00:00 8 8 Sudoeste 21 Sur 0 -- -- 73
2019-11-14 07:00:00 7.6 12 Oeste 37 Noroeste 0 -- -- 79
2019-11-14 06:00:00 7 11 Oeste 30 Oeste 1 -- -- 89
2019-11-14 05:00:00 6.7 16 Oeste 41 Oeste 3.6 -- -- 90
2019-11-14 04:00:00 7.4 16 Oeste 31 Oeste 3.8 -- -- 89
2019-11-14 03:00:00 8 16 Oeste 37 Noroeste 7 -- -- 92
2019-11-14 02:00:00 8.8 16 Noroeste 38 Oeste 6.2 -- -- 92
2019-11-14 01:00:00 9.5 10 Oeste 40 Noroeste 3.4 -- -- 92
2019-11-14 00:00:00 10.6 15 Noroeste 54 Noroeste 2.4 -- -- 91
2019-11-13 23:00:00 10.6 8 Sur 16 Sur 0 -- -- 87
2019-11-13 22:00:00 10.3 8 Sur 15 Sur 0 -- -- 88
2019-11-13 21:00:00 11.6 6 Sur 17 Sur 0 -- -- 85
2019-11-13 20:00:00 11.7 7 Sur 11 Sur 0 -- -- 87
2019-11-13 19:00:00 11.9 5 Sudoeste 15 Oeste 0 -- -- 85
2019-11-13 18:00:00 11.6 6 Sudoeste 13 Sudoeste 0 -- -- 85
2019-11-13 17:00:00 12 6 Sudoeste 15 Sudoeste 0 -- -- 86
2019-11-13 16:00:00 12.5 8 Sudoeste 19 Oeste 0 -- -- 88
2019-11-13 15:00:00 12 6 Oeste 16 Sudoeste 0.6 -- -- 91
2019-11-13 14:00:00 13.5 10 Oeste 17 Oeste 0 -- -- 81
2019-11-13 13:00:00 13.3 4 Oeste 10 Oeste 0 -- -- 86
2019-11-13 12:00:00 12.9 5 Oeste 11 Oeste 0.4 -- -- 89
2019-11-13 11:00:00 12.5 4 Oeste 8 Oeste 0 -- -- 92
2019-11-13 10:00:00 11.5 2 Noroeste 8 Oeste 0 -- -- 96
2019-11-13 09:00:00 11.3 3 Sur 5 Sur 0 -- -- 96
2019-11-13 08:00:00 11.4 2 Sudoeste 12 Norte 0.2 -- -- 93
2019-11-13 07:00:00 12.2 5 Norte 24 Norte 0.6 -- -- 94
2019-11-13 06:00:00 11.3 3 Norte 12 Norte 5 -- -- 100
2019-11-13 05:00:00 10.5 2 Norte 7 Sur 1.4 -- -- 100
2019-11-13 04:00:00 10.3 5 Sur 9 Sudeste 3.4 -- -- 99
2019-11-13 03:00:00 10.3 0 Calma 3 Noroeste 2.6 -- -- 99
2019-11-13 02:00:00 10.2 0 Calma 8 Sudoeste 0 -- -- 99
2019-11-13 01:00:00 10.1 0 Calma 7 Sudoeste 0 -- -- 99
2019-11-13 00:00:00 10.3 3 Noroeste 6 Norte 0.2 -- -- 99
2019-11-12 23:00:00 10.3 3 Noroeste 5 Oeste 0.8 -- -- 98
2019-11-12 22:00:00 10.5 4 Sudoeste 6 Sudoeste 1.2 -- -- 97
2019-11-12 21:00:00 10.7 3 Noroeste 6 Sur 0.8 -- -- 97
2019-11-12 20:00:00 10.9 0 Calma 6 Sur 1.8 -- -- 96
2019-11-12 19:00:00 11.1 3 Sur 10 Sudeste 1.6 -- -- 95
2019-11-12 18:00:00 11.7 5 Sur 10 Sur 0.6 -- -- 92
2019-11-12 17:00:00 13.1 2 Oeste 6 Oeste 0 -- -- 85
2019-11-12 16:00:00 14 4 Noroeste 18 Oeste 0 -- -- 76
2019-11-12 15:00:00 14.6 8 Oeste 19 Oeste 0 -- -- 70
2019-11-12 14:00:00 14.3 9 Oeste 24 Oeste 0 -- -- 71
2019-11-12 13:00:00 13.4 8 Oeste 19 Sudoeste 0 -- -- 72
2019-11-12 12:00:00 12.8 10 Oeste 25 Oeste 0 -- -- 75
2019-11-12 11:00:00 12.3 6 Oeste 22 Oeste 0 -- -- 77
2019-11-12 10:00:00 11.8 9 Oeste 22 Sudoeste 0 -- -- 77
2019-11-12 09:00:00 11 10 Oeste 22 Sudoeste 0 -- -- 79
2019-11-12 08:00:00 10.6 9 Sudoeste 21 Oeste 0.4 -- -- 83
2019-11-12 07:00:00 10.4 9 Sudoeste 23 Sudoeste 0 -- -- 86
2019-11-12 06:00:00 10.1 7 Sudoeste 19 Sudoeste 1.2 -- -- 92
2019-11-12 05:00:00 9.8 6 Oeste 28 Sudoeste 0.8 -- -- 93
2019-11-12 04:00:00 9.6 4 Sudoeste 11 Oeste 1.6 -- -- 92
2019-11-12 03:00:00 10.1 3 Oeste 28 Oeste 1.2 -- -- 88
2019-11-12 02:00:00 10.3 11 Sudoeste 22 Sudoeste 0 -- -- 91
2019-11-12 01:00:00 9.8 5 Sur 22 Oeste 2.4 -- -- 93
2019-11-12 00:00:00 9.8 6 Sur 13 Oeste 0.2 -- -- 91
2019-11-11 23:00:00 10.1 7 Oeste 17 Oeste 0 -- -- 93
2019-11-11 22:00:00 9.9 5 Sur 11 Oeste 0.2 -- -- 91
2019-11-11 21:00:00 10.7 6 Sudoeste 14 Oeste 0.4 -- -- 85
2019-11-11 20:00:00 11.2 6 Sudoeste 20 Noroeste 0 -- -- 79
2019-11-11 19:00:00 12.3 10 Noroeste 20 Noroeste 0 -- -- 72
2019-11-11 18:00:00 12.2 8 Oeste 21 Oeste 0 -- -- 74
2019-11-11 17:00:00 12 9 Oeste 26 Noroeste 0.2 -- -- 82
2019-11-11 16:00:00 13.2 14 Noroeste 39 Norte 0 -- -- 72
2019-11-11 15:00:00 14.1 17 Norte 34 Noroeste 0 -- -- 68
2019-11-11 14:00:00 13.4 17 Norte 40 Noroeste 0 -- -- 74
2019-11-11 13:00:00 13.2 15 Noroeste 47 Noroeste 0.4 -- -- 75
2019-11-11 12:00:00 12.6 18 Noroeste 49 Noroeste 1.2 -- -- 94
2019-11-11 11:00:00 14.1 19 Noroeste 45 Noroeste 1 -- -- 96
2019-11-11 10:00:00 10.3 6 Sur 12 Sudeste 0.4 -- -- 96
2019-11-11 09:00:00 10.2 7 Sur 14 Sur 0 -- -- 94
2019-11-11 08:00:00 10.3 7 Sur 13 Sur 0 -- -- 91
2019-11-11 07:00:00 10.3 6 Sur 10 Sur 0 -- -- 92
2019-11-11 06:00:00 10.2 7 Sur 13 Sudoeste 0 -- -- 92
2019-11-11 05:00:00 10.6 8 Sur 12 Sudoeste 0 -- -- 88
2019-11-11 04:00:00 10.9 7 Sudoeste 18 Sudoeste 0 -- -- 85
2019-11-11 03:00:00 10.6 6 Sudoeste 20 Oeste 0 -- -- 86
2019-11-11 02:00:00 10.2 8 Oeste 19 Oeste 0.4 -- -- 92
2019-11-11 01:00:00 9.9 5 Sudoeste 18 Oeste 0.6 -- -- 96
2019-11-11 00:00:00 8.9 2 Este 10 Sudeste 0 -- -- 97
2019-11-10 23:00:00 8.6 8 Sur 15 Sur 1.6 -- -- 96
2019-11-10 22:00:00 8.7 10 Sur 17 Sur 0 -- -- 95
2019-11-10 21:00:00 9.2 5 Sudoeste 21 Oeste 3 -- -- 91
2019-11-10 20:00:00 9.3 7 Oeste 24 Oeste 0.6 -- -- 90
2019-11-10 19:00:00 9.6 6 Sudoeste 14 Sudoeste 0 -- -- 87
2019-11-10 18:00:00 9.7 7 Oeste 41 Noroeste 2.8 -- -- 88
2019-11-10 17:00:00 10.2 6 Sudoeste 30 Noroeste 0.6 -- -- 84
2019-11-10 16:00:00 11.9 16 Noroeste 38 Noroeste 0.2 -- -- 74
2019-11-10 15:00:00 13 15 Noroeste 31 Noroeste 0 -- -- 68
2019-11-10 14:00:00 12.2 12 Noroeste 33 Oeste 0 -- -- 76
2019-11-10 13:00:00 10.7 12 Oeste 30 Oeste 0 -- -- 81
2019-11-10 12:00:00 11.5 11 Noroeste 28 Oeste 0.2 -- -- 80
2019-11-10 11:00:00 10.4 13 Noroeste 33 Oeste 0.6 -- -- 83
2019-11-10 10:00:00 8.9 14 Oeste 47 Este 3.4 -- -- 92
2019-11-10 09:00:00 8.8 6 Sudoeste 23 Norte 1 -- -- 92
2019-11-10 08:00:00 8.2 8 Sudoeste 27 Oeste 5.2 -- -- 91
2019-11-10 07:00:00 9.2 13 Oeste 42 Oeste 0.8 -- -- 85
2019-11-10 06:00:00 9 16 Oeste 31 Oeste 2.6 -- -- 89
2019-11-10 05:00:00 9.2 13 Oeste 26 Oeste 0.6 -- -- 85
2019-11-10 04:00:00 9 13 Oeste 31 Oeste 0 -- -- 86
2019-11-10 03:00:00 8.6 13 Oeste 27 Oeste 8.4 -- -- 89
2019-11-10 02:00:00 9.5 10 Oeste 29 Noroeste 0.2 -- -- 83
2019-11-10 01:00:00 9.1 5 Sur 25 Oeste 1.2 -- -- 84
2019-11-10 00:00:00 9.9 12 Oeste 29 Oeste 0 -- -- 82
2019-11-09 23:00:00 10.1 10 Oeste 31 Oeste 4.6 -- -- 85
2019-11-09 22:00:00 10.6 11 Oeste 22 Oeste 0 -- -- 83
2019-11-09 21:00:00 9.8 10 Sudoeste 41 Oeste 4.6 -- -- 92
2019-11-09 20:00:00 10.4 10 Sudoeste 34 Noroeste 2.6 -- -- 93
2019-11-09 19:00:00 10.7 18 Noroeste 53 Oeste 13.8 -- -- 94
2019-11-09 18:00:00 12.5 13 Noroeste 51 Noroeste 3.6 -- -- 85
2019-11-09 17:00:00 13.5 18 Noroeste 49 Noroeste 0.6 -- -- 81
2019-11-09 16:00:00 13.9 19 Noroeste 56 Noroeste 0.8 -- -- 85
2019-11-09 15:00:00 14.4 24 Noroeste 46 Oeste 4 -- -- 92
2019-11-09 14:00:00 12.3 6 Sudoeste 21 Oeste 0.4 -- -- 96
2019-11-09 13:00:00 11.4 8 Sur 15 Sur 0.6 -- -- 93
2019-11-09 12:00:00 11.6 4 Sur 13 Sur 0.4 -- -- 93
2019-11-09 11:00:00 10.4 6 Sur 15 Sur 0.2 -- -- 93
2019-11-09 10:00:00 10.3 6 Sur 13 Sur 0.2 -- -- 94
2019-11-09 09:00:00 10 7 Sur 12 Sur 0 -- -- 95
2019-11-09 08:00:00 9.6 6 Sur 13 Sur 0 -- -- 95
2019-11-09 07:00:00 9.7 6 Sur 14 Oeste 0.6 -- -- 94
2019-11-09 06:00:00 10.2 6 Sudoeste 17 Sudoeste 1 -- -- 92
2019-11-09 05:00:00 9.9 8 Sudoeste 15 Sudoeste 4.6 -- -- 94
2019-11-09 04:00:00 10 9 Oeste 27 Oeste 3.8 -- -- 94
2019-11-09 03:00:00 10.4 15 Oeste 30 Oeste 0.2 -- -- 90
2019-11-09 02:00:00 10.2 11 Oeste 26 Oeste 2.2 -- -- 91
2019-11-09 01:00:00 10.2 14 Oeste 32 Oeste 1 -- -- 92
2019-11-09 00:00:00 10.2 11 Oeste 25 Oeste 1.2 -- -- 89
2019-11-08 23:00:00 10.3 8 Noroeste 25 Oeste 0.8 -- -- 90
2019-11-08 22:00:00 10 7 Oeste 23 Oeste 0 -- -- 90
2019-11-08 21:00:00 10.7 12 Oeste 35 Oeste 1.6 -- -- 87
2019-11-08 20:00:00 10.2 7 Sudoeste 27 Oeste 0.4 -- -- 89
2019-11-08 19:00:00 10.2 15 Oeste 53 Oeste 5.6 -- -- 90
2019-11-08 18:00:00 10.6 22 Noroeste 50 Noroeste 5 -- -- 90
2019-11-08 17:00:00 11.2 19 Noroeste 52 Noroeste 0.8 -- -- 86
2019-11-08 16:00:00 12.5 26 Noroeste 61 Noroeste 0 -- -- 79
2019-11-08 15:00:00 12 25 Noroeste 57 Oeste 1.4 -- -- 84
2019-11-08 14:00:00 11 23 Noroeste 52 Noroeste 3.4 -- -- 90
2019-11-08 13:00:00 12.2 26 Noroeste 50 Oeste 0.2 -- -- 80
2019-11-08 12:00:00 11.2 22 Oeste 42 Oeste 4.6 -- -- 88
2019-11-08 11:00:00 9.4 15 Oeste 45 Oeste 3.4 -- -- 90
2019-11-08 10:00:00 9.4 19 Oeste 41 Oeste 5.2 -- -- 88
2019-11-08 09:00:00 9.4 19 Oeste 49 Sudoeste 0.8 -- -- 85
2019-11-08 08:00:00 9.2 13 Oeste 48 Oeste 1 -- -- 86
2019-11-08 07:00:00 9.4 15 Oeste 39 Oeste 0.6 -- -- 83
2019-11-08 06:00:00 9.3 15 Oeste 44 Oeste 0.2 -- -- 82
2019-11-08 05:00:00 9 16 Oeste 40 Oeste 0.8 -- -- 82
2019-11-08 04:00:00 8.7 12 Oeste 36 Oeste 0.6 -- -- 82
2019-11-08 03:00:00 9 17 Oeste 40 Oeste 0 -- -- 77
2019-11-08 02:00:00 8.3 14 Oeste 35 Oeste 1.2 -- -- 82
2019-11-08 01:00:00 8.6 11 Oeste 33 Oeste 0.6 -- -- 79
2019-11-08 00:00:00 9.3 10 Oeste 44 Oeste 0 -- -- 69
2019-11-07 23:00:00 9.6 11 Oeste 25 Oeste 0 -- -- 67
2019-11-07 22:00:00 9.2 10 Oeste 27 Oeste 0 -- -- 67
2019-11-07 21:00:00 9.4 14 Oeste 34 Oeste 0 -- -- 68
2019-11-07 20:00:00 9.2 12 Sudoeste 27 Sudoeste 0 -- -- 70
2019-11-07 19:00:00 9.9 14 Oeste 44 Oeste 0 -- -- 77
2019-11-07 18:00:00 10.1 9 Sudoeste 23 Oeste 0 -- -- 73
2019-11-07 17:00:00 10.4 10 Oeste 37 Oeste 0 -- -- 76
2019-11-07 16:00:00 11.4 11 Sudoeste 27 Sudoeste 0 -- -- 78
2019-11-07 15:00:00 10.7 15 Oeste 49 Oeste 0.4 -- -- 81
2019-11-07 14:00:00 12.5 18 Noroeste 39 Oeste 0 -- -- 67
2019-11-07 13:00:00 12.7 18 Noroeste 39 Noroeste 0 -- -- 65
2019-11-07 12:00:00 12.4 19 Noroeste 44 Oeste 0 -- -- 70
2019-11-07 11:00:00 11.1 18 Oeste 45 Oeste 0 -- -- 73
2019-11-07 10:00:00 10.4 11 Oeste 32 Sudoeste 0 -- -- 76
2019-11-07 09:00:00 9.7 9 Oeste 30 Oeste 0.2 -- -- 85
2019-11-07 08:00:00 10 12 Oeste 28 Oeste 0.6 -- -- 89
2019-11-07 07:00:00 10 6 Noroeste 29 Norte 1.4 -- -- 92
2019-11-07 06:00:00 10.6 11 Oeste 37 Noroeste 0.6 -- -- 89
2019-11-07 05:00:00 11.5 18 Noroeste 47 Oeste 0.4 -- -- 88
2019-11-07 04:00:00 11.8 8 Oeste 34 Sur 0.2 -- -- 88
2019-11-07 03:00:00 12.1 13 Oeste 45 Oeste 0 -- -- 89
2019-11-07 02:00:00 12.7 18 Oeste 39 Noroeste 3.6 -- -- 93
2019-11-07 01:00:00 13.4 13 Noroeste 38 Noroeste 7 -- -- 95
2019-11-07 00:00:00 13.4 10 Oeste 28 Noroeste 6.2 -- -- 95
2019-11-06 23:00:00 12.9 8 Oeste 17 Oeste 0.2 -- -- 97
2019-11-06 22:00:00 12.2 3 Sudeste 12 Sur 0.8 -- -- 95
2019-11-06 21:00:00 12.3 6 Sur 10 Sur 0.2 -- -- 93
2019-11-06 20:00:00 12.7 6 Sudeste 15 Sudeste 0 -- -- 91
2019-11-06 19:00:00 13.2 5 Sur 12 Sur 0.2 -- -- 90
2019-11-06 18:00:00 14.2 3 Sur 8 Sur 0 -- -- 85
2019-11-06 17:00:00 15.5 3 Noroeste 12 Noroeste 0 -- -- 76
2019-11-06 16:00:00 15.7 0 Calma 9 Nordeste 0 -- -- 77
2019-11-06 15:00:00 14.6 6 Este 11 Nordeste 0 -- -- 84
2019-11-06 14:00:00 14.4 3 Sudoeste 17 Sudoeste 0 -- -- 82
2019-11-06 13:00:00 12.8 7 Sudoeste 27 Oeste 0 -- -- 92
2019-11-06 12:00:00 12.4 9 Oeste 27 Noroeste 0.8 -- -- 90
2019-11-06 11:00:00 12.5 6 Sudoeste 17 Oeste 0.2 -- -- 86
2019-11-06 10:00:00 12.1 6 Oeste 19 Oeste 0.6 -- -- 89
2019-11-06 09:00:00 11.6 10 Oeste 25 Sudoeste 0.8 -- -- 90
2019-11-06 08:00:00 11.3 6 Oeste 23 Sudoeste 1.4 -- -- 92
2019-11-06 07:00:00 11.7 10 Sudoeste 28 Oeste 0.8 -- -- 91
2019-11-06 06:00:00 11.6 13 Oeste 31 Oeste 0.6 -- -- 92
2019-11-06 05:00:00 12.2 6 Oeste 24 Oeste 0 -- -- 88
2019-11-06 04:00:00 12.4 10 Oeste 30 Noroeste 0 -- -- 88
2019-11-06 03:00:00 13.3 11 Noroeste 29 Noroeste 0 -- -- 79
2019-11-06 02:00:00 13.4 11 Noroeste 32 Oeste 0 -- -- 79
2019-11-06 01:00:00 12.9 15 Oeste 37 Noroeste 0.2 -- -- 81
2019-11-06 00:00:00 13 15 Noroeste 45 Noroeste 0.6 -- -- 87